Ashland, Kansas
Current Conditions -  °F | °C
As of 4:52 PM on Saturday 25 Oct 2014 (Local Time) from KDDC Reporting Station
Clear Clear  
Wind Chill: 31°   Ceiling: Unl
Heat Index: 31°   Visibility: 10mi
Dew Point:   Wind: 16mph
Humidity: 22%   Direction: 180°S
Pressure: 30.01"   Gusts: 24mph
Location:  37.19°N, 99.77°W
Report Text: KDDC 252152Z AUTO 18014G21KT 10SM CLR 31/07 A3001 RMK AO2 SLP133 T03110072
Loading
Personal Weather Stations






























Interactive Weather Map
Tropical Storm Tracking
New forecast layout! Learn more

10-Day Weather Forecast

Advertisements
Track Severe Weather on mobile